Time;durP1;ratioP1;P1;durP2;ratioP2;P2;SDS_P1;SDS_P2;PMS_P1;PMS_P2;Temp;Humidity;BMP_temperature;BMP_pressure;BME280_temperature;BME280_humidity;BME280_pressure;Samples;Min_cycle;Max_cycle;Signal;HPM_P1;HPM_P2
2021/08/25 00:00:00;;;;;;;8.80;3.00;;;;;;;;;;5013231;28;20402;-78
2021/08/25 00:02:27;;;;;;;3.93;2.97;;;;;;;;;;4995648;28;20929;-77
2021/08/25 00:04:54;;;;;;;3.00;1.90;;;;;;;;;;4995219;28;20426;-80
2021/08/25 00:07:21;;;;;;;3.37;2.40;;;;;;;;;;5013096;28;20906;-77
2021/08/25 00:09:47;;;;;;;3.10;2.60;;;;;;;;;;5012946;28;20489;-80
2021/08/25 00:12:14;;;;;;;4.70;1.93;;;;;;;;;;5012940;28;20419;-80
2021/08/25 00:14:41;;;;;;;3.20;2.33;;;;;;;;;;5012439;28;20421;-81
2021/08/25 00:17:07;;;;;;;6.33;2.73;;;;;;;;;;4995704;28;20781;-80
2021/08/25 00:19:33;;;;;;;3.70;2.67;;;;;;;;;;5013094;28;20418;-80
2021/08/25 00:21:59;;;;;;;3.70;2.60;;;;;;;;;;5016611;28;20400;-79
2021/08/25 00:24:25;;;;;;;5.43;2.63;;;;;;;;;;5016092;28;20440;-79
2021/08/25 00:26:51;;;;;;;3.20;2.33;;;;;;;;;;4998759;28;20442;-78
2021/08/25 00:29:17;;;;;;;5.43;3.17;;;;;;;;;;5031509;28;20968;-80
2021/08/25 00:31:43;;;;;;;4.03;2.90;;;;;;;;;;5031580;28;20388;-79
2021/08/25 00:34:10;;;;;;;5.73;3.30;;;;;;;;;;5016099;28;20851;-82
2021/08/25 00:36:36;;;;;;;4.17;2.90;;;;;;;;;;5015920;28;20434;-80
2021/08/25 00:39:02;;;;;;;3.93;3.07;;;;;;;;;;5016110;28;20492;-79
2021/08/25 00:41:28;;;;;;;6.70;3.00;;;;;;;;;;5016230;28;20779;-82
2021/08/25 00:43:55;;;;;;;4.80;2.93;;;;;;;;;;5015898;28;20396;-81
2021/08/25 00:46:21;;;;;;;4.23;2.80;;;;;;;;;;5016079;28;20430;-82
2021/08/25 00:48:47;;;;;;;5.43;2.90;;;;;;;;;;5016137;28;20478;-80
2021/08/25 00:51:14;;;;;;;5.57;2.97;;;;;;;;;;4998288;28;20456;-81
2021/08/25 00:53:40;;;;;;;4.80;3.20;;;;;;;;;;5015773;28;20406;-81
2021/08/25 00:56:07;;;;;;;3.20;2.90;;;;;;;;;;5015916;28;20445;-82
2021/08/25 00:58:35;;;;;;;3.20;2.83;;;;;;;;;;5016007;28;20504;-81
2021/08/25 01:01:08;;;;;;;5.17;3.20;;;;;;;;;;5015716;28;20418;-80
2021/08/25 01:03:49;;;;;;;6.10;3.00;;;;;;;;;;5015576;28;20394;-79
2021/08/25 01:06:16;;;;;;;3.23;2.70;;;;;;;;;;5015633;28;20480;-79
2021/08/25 01:08:43;;;;;;;4.10;2.90;;;;;;;;;;5015562;28;20465;-80
2021/08/25 01:11:10;;;;;;;3.77;2.50;;;;;;;;;;4998499;28;20484;-80
2021/08/25 01:13:36;;;;;;;4.37;2.97;;;;;;;;;;4981632;28;20501;-80
2021/08/25 01:16:02;;;;;;;4.50;3.17;;;;;;;;;;5015478;28;20475;-82
2021/08/25 01:18:28;;;;;;;5.07;3.00;;;;;;;;;;5015412;28;20410;-79
2021/08/25 01:20:55;;;;;;;4.53;3.33;;;;;;;;;;5015374;28;20444;-80
2021/08/25 01:23:22;;;;;;;6.40;3.17;;;;;;;;;;5015211;28;20507;-81
2021/08/25 01:25:49;;;;;;;3.90;2.80;;;;;;;;;;5015352;28;20853;-81
2021/08/25 01:28:18;;;;;;;4.13;3.27;;;;;;;;;;5015253;28;20870;-81
2021/08/25 01:30:45;;;;;;;6.80;3.27;;;;;;;;;;5014961;28;20410;-80
2021/08/25 01:33:17;;;;;;;6.07;2.80;;;;;;;;;;5014058;28;20418;-82
2021/08/25 01:35:43;;;;;;;3.90;2.90;;;;;;;;;;5015149;28;20438;-79
2021/08/25 01:38:09;;;;;;;3.57;2.87;;;;;;;;;;5015109;28;20509;-82
2021/08/25 01:40:36;;;;;;;5.17;2.90;;;;;;;;;;5014967;28;20440;-80
2021/08/25 01:43:08;;;;;;;3.87;2.97;;;;;;;;;;5014638;28;20418;-82
2021/08/25 01:45:34;;;;;;;5.20;3.30;;;;;;;;;;5015073;28;20445;-79
2021/08/25 01:48:00;;;;;;;5.67;3.03;;;;;;;;;;5014838;28;20410;-80
2021/08/25 01:50:26;;;;;;;3.03;2.70;;;;;;;;;;5014835;28;20742;-81
2021/08/25 01:52:52;;;;;;;6.13;3.50;;;;;;;;;;5014671;28;20963;-82
2021/08/25 01:55:20;;;;;;;5.23;3.33;;;;;;;;;;4997000;28;20572;-80
2021/08/25 01:57:46;;;;;;;3.57;3.27;;;;;;;;;;5014801;28;20418;-80
2021/08/25 02:00:12;;;;;;;7.13;3.67;;;;;;;;;;5014614;28;20894;-82
2021/08/25 02:02:41;;;;;;;4.60;3.40;;;;;;;;;;5014645;28;20433;-82
2021/08/25 02:05:07;;;;;;;4.37;2.90;;;;;;;;;;5014486;28;20519;-80
2021/08/25 02:07:33;;;;;;;6.10;3.27;;;;;;;;;;4997008;28;20418;-82
2021/08/25 02:09:59;;;;;;;4.13;3.07;;;;;;;;;;5014736;28;20465;-80
2021/08/25 02:12:25;;;;;;;5.00;3.27;;;;;;;;;;5014578;28;20465;-82
2021/08/25 02:14:51;;;;;;;5.70;3.20;;;;;;;;;;4996660;28;20786;-82
2021/08/25 02:17:17;;;;;;;5.97;3.20;;;;;;;;;;5014319;28;20401;-81
2021/08/25 02:19:43;;;;;;;8.87;3.60;;;;;;;;;;5014355;28;20424;-82
2021/08/25 02:22:10;;;;;;;3.97;3.23;;;;;;;;;;5014348;28;20421;-79
2021/08/25 02:24:36;;;;;;;5.63;4.07;;;;;;;;;;5013914;28;20498;-82
2021/08/25 02:27:02;;;;;;;7.00;3.53;;;;;;;;;;5014313;28;20910;-81
2021/08/25 02:29:28;;;;;;;4.40;3.53;;;;;;;;;;4996626;28;20516;-81
2021/08/25 02:31:54;;;;;;;4.40;2.80;;;;;;;;;;4980575;28;20501;-82
2021/08/25 02:34:20;;;;;;;5.27;3.43;;;;;;;;;;4996228;28;20421;-80
2021/08/25 02:36:46;;;;;;;4.90;3.40;;;;;;;;;;5013933;28;20918;-80
2021/08/25 02:39:12;;;;;;;8.43;4.00;;;;;;;;;;5013880;28;20438;-82
2021/08/25 02:41:38;;;;;;;7.00;3.57;;;;;;;;;;4996230;28;20944;-83
2021/08/25 02:44:05;;;;;;;6.07;3.77;;;;;;;;;;5013363;28;20428;-80
2021/08/25 02:46:31;;;;;;;4.43;3.90;;;;;;;;;;5013866;28;20651;-80
2021/08/25 02:48:57;;;;;;;4.20;3.80;;;;;;;;;;5013779;28;20460;-79
2021/08/25 02:51:23;;;;;;;3.50;3.20;;;;;;;;;;5013779;28;20497;-82
2021/08/25 02:53:49;;;;;;;5.53;4.20;;;;;;;;;;5013477;28;20497;-82
2021/08/25 02:56:15;;;;;;;8.77;4.40;;;;;;;;;;5013664;28;20484;-81
2021/08/25 02:58:41;;;;;;;7.33;5.20;;;;;;;;;;5014007;28;20421;-83
2021/08/25 03:01:07;;;;;;;5.60;3.90;;;;;;;;;;4996026;28;20436;-81
2021/08/25 03:03:33;;;;;;;6.93;4.73;;;;;;;;;;5013305;28;20501;-82
2021/08/25 03:05:59;;;;;;;7.17;4.50;;;;;;;;;;5013187;28;20488;-81
2021/08/25 03:08:25;;;;;;;7.93;4.90;;;;;;;;;;4996311;28;20458;-82
2021/08/25 03:10:51;;;;;;;4.70;3.40;;;;;;;;;;4996229;28;20409;-82
2021/08/25 03:13:17;;;;;;;4.03;3.60;;;;;;;;;;4995837;28;20421;-81
2021/08/25 03:15:43;;;;;;;5.33;3.83;;;;;;;;;;5013474;28;20422;-82
2021/08/25 03:18:09;;;;;;;5.23;3.77;;;;;;;;;;5013518;28;20412;-83
2021/08/25 03:20:35;;;;;;;8.43;3.10;;;;;;;;;;4995457;28;20409;-79
2021/08/25 03:23:01;;;;;;;4.20;3.03;;;;;;;;;;5013222;28;20475;-81
2021/08/25 03:25:27;;;;;;;4.53;3.80;;;;;;;;;;4995692;28;20965;-81
2021/08/25 03:27:53;;;;;;;3.30;2.90;;;;;;;;;;5013199;28;20413;-81
2021/08/25 03:30:19;;;;;;;5.60;3.42;;;;;;;;;;5013701;28;20405;-80
2021/08/25 03:32:45;;;;;;;5.40;3.75;;;;;;;;;;5012973;28;20238;-83
2021/08/25 03:35:11;;;;;;;5.10;3.70;;;;;;;;;;4995658;28;20214;-82
2021/08/25 03:37:38;;;;;;;4.57;3.40;;;;;;;;;;5013437;28;20484;-80
2021/08/25 03:40:05;;;;;;;10.10;3.93;;;;;;;;;;5013175;28;20432;-82
2021/08/25 03:42:31;;;;;;;6.17;4.30;;;;;;;;;;4995692;28;20418;-82
2021/08/25 03:44:57;;;;;;;9.90;4.10;;;;;;;;;;4995349;28;20491;-83
2021/08/25 03:47:23;;;;;;;5.03;4.40;;;;;;;;;;4995551;28;20429;-83
2021/08/25 03:49:49;;;;;;;5.50;4.70;;;;;;;;;;5013127;28;20457;-81
2021/08/25 03:52:15;;;;;;;5.53;4.97;;;;;;;;;;5013221;28;20780;-80
2021/08/25 03:54:41;;;;;;;9.73;5.03;;;;;;;;;;4995773;28;20430;-80
2021/08/25 03:57:07;;;;;;;8.73;4.57;;;;;;;;;;5017022;28;20178;-81
2021/08/25 03:59:33;;;;;;;7.63;3.80;;;;;;;;;;4999631;28;20417;-83
2021/08/25 04:01:59;;;;;;;7.20;4.33;;;;;;;;;;4999410;28;20413;-81
2021/08/25 04:04:25;;;;;;;4.23;3.83;;;;;;;;;;5016440;28;20426;-81
2021/08/25 04:06:51;;;;;;;7.25;4.30;;;;;;;;;;4999412;28;20452;-82
2021/08/25 04:09:17;;;;;;;7.30;5.37;;;;;;;;;;5017025;28;20294;-80
2021/08/25 04:11:43;;;;;;;6.33;4.90;;;;;;;;;;5016939;28;20412;-82
2021/08/25 04:14:09;;;;;;;5.30;4.50;;;;;;;;;;4999058;28;20413;-84
2021/08/25 04:16:35;;;;;;;6.77;4.50;;;;;;;;;;5016834;28;20791;-83
2021/08/25 04:19:01;;;;;;;7.90;4.60;;;;;;;;;;4999295;28;20449;-82
2021/08/25 04:21:27;;;;;;;6.20;4.70;;;;;;;;;;5016502;28;20441;-83
2021/08/25 04:23:53;;;;;;;6.80;4.73;;;;;;;;;;5016207;28;20175;-84
2021/08/25 04:26:19;;;;;;;4.73;3.70;;;;;;;;;;5016544;28;20457;-81
2021/08/25 04:28:45;;;;;;;4.90;4.40;;;;;;;;;;5016606;28;20468;-83
2021/08/25 04:31:11;;;;;;;6.97;4.90;;;;;;;;;;5016337;28;20413;-82
2021/08/25 04:33:37;;;;;;;5.20;4.65;;;;;;;;;;5016425;28;20455;-81
2021/08/25 04:36:03;;;;;;;5.50;4.33;;;;;;;;;;4998793;28;20206;-81
2021/08/25 04:38:29;;;;;;;5.47;4.35;;;;;;;;;;5016010;28;20921;-82
2021/08/25 04:40:58;;;;;;;6.47;4.30;;;;;;;;;;5017349;28;20170;-83
2021/08/25 04:43:24;;;;;;;4.75;4.25;;;;;;;;;;5032230;28;20270;-82
2021/08/25 04:45:50;;;;;;;7.55;4.15;;;;;;;;;;4999501;28;20210;-82
2021/08/25 04:48:16;;;;;;;7.78;4.25;;;;;;;;;;4982964;28;20206;-82
2021/08/25 04:50:42;;;;;;;7.63;4.32;;;;;;;;;;5015774;28;20214;-81
2021/08/25 04:53:08;;;;;;;5.30;4.47;;;;;;;;;;5015588;28;20542;-82
2021/08/25 04:55:37;;;;;;;5.35;4.35;;;;;;;;;;5015758;28;20422;-82
2021/08/25 04:58:04;;;;;;;6.68;4.30;;;;;;;;;;5015990;28;20186;-81
2021/08/25 05:00:30;;;;;;;5.47;4.25;;;;;;;;;;5015509;28;20258;-82
2021/08/25 05:02:56;;;;;;;5.53;4.85;;;;;;;;;;5015615;28;20182;-83
2021/08/25 05:05:22;;;;;;;7.57;4.22;;;;;;;;;;4997686;28;20736;-82
2021/08/25 05:07:48;;;;;;;5.23;4.20;;;;;;;;;;5015265;28;20186;-81
2021/08/25 05:10:15;;;;;;;6.03;4.07;;;;;;;;;;5015339;28;20527;-82
2021/08/25 05:12:41;;;;;;;8.38;4.60;;;;;;;;;;5012527;28;20416;-78
2021/08/25 05:15:08;;;;;;;8.10;5.00;;;;;;;;;;5015206;28;20198;-80
2021/08/25 05:17:34;;;;;;;4.97;3.90;;;;;;;;;;4997903;28;20413;-81
2021/08/25 05:20:04;;;;;;;4.45;3.75;;;;;;;;;;5015303;28;20414;-81
2021/08/25 05:22:30;;;;;;;7.72;4.40;;;;;;;;;;5015326;28;20532;-79
2021/08/25 05:24:56;;;;;;;6.40;4.40;;;;;;;;;;5015064;28;20205;-79
2021/08/25 05:27:22;;;;;;;6.13;5.53;;;;;;;;;;5015193;28;20457;-81
2021/08/25 05:29:48;;;;;;;4.30;3.90;;;;;;;;;;4997452;28;20992;-79
2021/08/25 05:32:14;;;;;;;6.15;4.57;;;;;;;;;;5015089;28;20406;-78
2021/08/25 05:34:40;;;;;;;4.75;3.90;;;;;;;;;;5014737;28;20178;-82
2021/08/25 05:37:06;;;;;;;6.23;4.03;;;;;;;;;;5015052;28;20262;-81
2021/08/25 05:39:32;;;;;;;7.10;4.70;;;;;;;;;;5014879;28;20437;-81
2021/08/25 05:41:58;;;;;;;5.50;4.03;;;;;;;;;;5015212;28;20410;-80
2021/08/25 05:44:24;;;;;;;5.63;4.33;;;;;;;;;;5014637;28;20413;-80
2021/08/25 05:46:50;;;;;;;4.93;4.10;;;;;;;;;;4997611;28;20457;-81
2021/08/25 05:49:16;;;;;;;5.67;3.97;;;;;;;;;;5014931;28;20461;-81
2021/08/25 05:51:43;;;;;;;5.07;4.20;;;;;;;;;;5014687;28;20416;-80
2021/08/25 05:54:09;;;;;;;5.23;3.97;;;;;;;;;;5014453;28;20409;-81
2021/08/25 05:56:35;;;;;;;6.33;4.70;;;;;;;;;;5014775;28;20770;-81
2021/08/25 05:59:01;;;;;;;8.27;5.30;;;;;;;;;;5014603;28;20778;-81
2021/08/25 06:01:27;;;;;;;5.57;4.80;;;;;;;;;;5014616;28;20418;-79
2021/08/25 06:03:53;;;;;;;5.70;4.67;;;;;;;;;;5014430;28;20928;-79
2021/08/25 06:06:19;;;;;;;7.67;5.27;;;;;;;;;;5014516;28;20434;-80
2021/08/25 06:08:45;;;;;;;7.23;4.43;;;;;;;;;;4997014;28;20466;-80
2021/08/25 06:11:11;;;;;;;5.13;4.20;;;;;;;;;;5014170;28;20464;-81
2021/08/25 06:13:37;;;;;;;6.20;4.63;;;;;;;;;;4996432;28;20408;-78
2021/08/25 06:16:04;;;;;;;6.70;4.10;;;;;;;;;;5014342;28;20532;-77
2021/08/25 06:18:30;;;;;;;8.90;4.20;;;;;;;;;;4996561;28;20448;-77
2021/08/25 06:20:56;;;;;;;7.43;4.80;;;;;;;;;;5014216;28;20473;-75
2021/08/25 06:23:22;;;;;;;5.40;4.90;;;;;;;;;;4996045;28;20426;-76
2021/08/25 06:25:49;;;;;;;6.77;4.33;;;;;;;;;;5014121;28;20752;-78
2021/08/25 06:28:15;;;;;;;8.33;6.10;;;;;;;;;;4996722;28;20504;-75
2021/08/25 06:30:41;;;;;;;5.20;4.20;;;;;;;;;;5029230;28;20440;-77
2021/08/25 06:33:07;;;;;;;4.97;4.30;;;;;;;;;;5013678;28;20418;-76
2021/08/25 06:35:33;;;;;;;8.30;4.43;;;;;;;;;;5013697;28;20525;-78
2021/08/25 06:37:59;;;;;;;7.40;4.77;;;;;;;;;;5025635;28;20796;-77
2021/08/25 06:40:25;;;;;;;8.93;4.47;;;;;;;;;;5003413;28;20432;-77
2021/08/25 06:42:51;;;;;;;5.10;4.27;;;;;;;;;;5004462;28;20414;-76
2021/08/25 06:45:17;;;;;;;5.47;4.40;;;;;;;;;;4976175;28;20442;-78
2021/08/25 06:47:43;;;;;;;5.67;4.73;;;;;;;;;;4971196;28;20426;-77
2021/08/25 06:50:10;;;;;;;8.50;5.17;;;;;;;;;;5007154;28;20457;-75
2021/08/25 06:52:36;;;;;;;7.70;5.73;;;;;;;;;;5004929;28;20792;-76
2021/08/25 06:55:02;;;;;;;7.07;4.70;;;;;;;;;;4982917;28;20426;-78
2021/08/25 06:57:28;;;;;;;8.00;5.13;;;;;;;;;;5005864;28;20413;-78
2021/08/25 06:59:54;;;;;;;9.80;4.77;;;;;;;;;;4985958;28;20418;-77
2021/08/25 07:02:20;;;;;;;6.00;4.00;;;;;;;;;;4985103;28;20411;-77
2021/08/25 07:04:46;;;;;;;6.37;4.60;;;;;;;;;;5004727;28;20726;-76
2021/08/25 07:07:12;;;;;;;5.20;4.50;;;;;;;;;;5012445;28;20420;-78
2021/08/25 07:09:39;;;;;;;9.27;4.93;;;;;;;;;;4979929;28;20469;-78
2021/08/25 07:12:05;;;;;;;8.23;4.67;;;;;;;;;;5013524;28;20902;-78
2021/08/25 07:14:31;;;;;;;7.43;4.63;;;;;;;;;;5012992;28;21026;-76
2021/08/25 07:16:57;;;;;;;8.23;4.70;;;;;;;;;;4995806;28;20418;-79
2021/08/25 07:19:23;;;;;;;11.00;5.20;;;;;;;;;;5013357;28;20404;-79
2021/08/25 07:21:49;;;;;;;6.77;4.87;;;;;;;;;;5013126;28;20509;-78
2021/08/25 07:24:15;;;;;;;15.83;4.83;;;;;;;;;;5013108;28;20396;-82
2021/08/25 07:26:41;;;;;;;11.93;5.20;;;;;;;;;;5013303;28;20440;-80
2021/08/25 07:29:07;;;;;;;9.30;5.03;;;;;;;;;;5013178;28;20457;-79
2021/08/25 07:31:33;;;;;;;10.67;5.67;;;;;;;;;;5016781;28;20493;-80
2021/08/25 07:33:59;;;;;;;7.83;5.73;;;;;;;;;;5017017;28;20501;-78
2021/08/25 07:36:25;;;;;;;8.40;4.63;;;;;;;;;;4999549;28;20537;-78
2021/08/25 07:38:52;;;;;;;8.67;4.83;;;;;;;;;;5017237;28;20433;-79
2021/08/25 07:41:18;;;;;;;15.60;6.80;;;;;;;;;;5017100;28;20417;-78
2021/08/25 07:43:44;;;;;;;6.87;4.80;;;;;;;;;;5016821;28;20453;-82
2021/08/25 07:46:11;;;;;;;7.13;5.13;;;;;;;;;;5017065;28;20487;-79
2021/08/25 07:48:37;;;;;;;7.60;4.40;;;;;;;;;;5017077;28;20460;-79
2021/08/25 07:51:08;;;;;;;7.57;4.17;;;;;;;;;;5017047;28;20895;-81
2021/08/25 07:53:34;;;;;;;5.30;4.17;;;;;;;;;;5016816;28;20485;-78
2021/08/25 07:56:00;;;;;;;7.70;4.40;;;;;;;;;;5016829;28;20444;-78
2021/08/25 07:58:26;;;;;;;7.27;4.20;;;;;;;;;;5016964;28;20413;-81
2021/08/25 08:00:52;;;;;;;8.03;4.20;;;;;;;;;;5017093;28;20413;-80
2021/08/25 08:03:18;;;;;;;7.33;4.53;;;;;;;;;;5016524;28;20870;-81
2021/08/25 08:05:44;;;;;;;6.67;4.23;;;;;;;;;;5016692;28;20465;-78
2021/08/25 08:08:10;;;;;;;5.17;3.47;;;;;;;;;;4998999;28;20421;-81
2021/08/25 08:10:36;;;;;;;6.30;4.00;;;;;;;;;;5016819;28;20886;-82
2021/08/25 08:13:02;;;;;;;6.60;3.83;;;;;;;;;;5016383;28;20389;-80
2021/08/25 08:15:33;;;;;;;8.90;3.30;;;;;;;;;;4999248;28;20434;-78
2021/08/25 08:18:07;;;;;;;9.90;3.57;;;;;;;;;;4999025;28;20416;-81
2021/08/25 08:20:33;;;;;;;6.80;3.30;;;;;;;;;;5016641;28;20505;-78
2021/08/25 08:22:59;;;;;;;5.63;3.33;;;;;;;;;;5016255;28;20406;-81
2021/08/25 08:25:25;;;;;;;5.80;3.80;;;;;;;;;;5016488;28;20400;-78
2021/08/25 08:27:51;;;;;;;3.90;3.00;;;;;;;;;;5016377;28;20747;-80
2021/08/25 08:30:17;;;;;;;4.10;2.70;;;;;;;;;;4998487;28;20469;-81
2021/08/25 08:32:43;;;;;;;5.53;3.53;;;;;;;;;;5016266;28;20418;-78
2021/08/25 08:35:09;;;;;;;6.50;3.03;;;;;;;;;;5016258;28;20412;-81
2021/08/25 08:37:35;;;;;;;5.30;3.23;;;;;;;;;;5016241;28;20417;-81
2021/08/25 08:40:01;;;;;;;4.50;3.03;;;;;;;;;;5016063;28;20433;-81
2021/08/25 08:42:28;;;;;;;4.60;3.53;;;;;;;;;;5015603;28;20799;-79
2021/08/25 08:44:56;;;;;;;3.77;2.57;;;;;;;;;;4998306;28;20517;-81
2021/08/25 08:47:23;;;;;;;4.00;2.67;;;;;;;;;;5016437;28;20418;-81
2021/08/25 08:49:50;;;;;;;6.70;3.00;;;;;;;;;;5015771;28;20835;-79
2021/08/25 08:52:16;;;;;;;5.97;2.77;;;;;;;;;;5015987;28;20899;-80
2021/08/25 08:54:42;;;;;;;5.10;2.97;;;;;;;;;;5015682;28;21297;-80
2021/08/25 08:57:08;;;;;;;6.13;2.97;;;;;;;;;;5015890;28;20414;-81
2021/08/25 08:59:34;;;;;;;7.60;3.70;;;;;;;;;;5015774;28;20425;-79
2021/08/25 09:02:00;;;;;;;6.20;2.87;;;;;;;;;;5015779;28;20421;-79
2021/08/25 09:04:34;;;;;;;7.03;2.70;;;;;;;;;;5015314;28;20418;-79
2021/08/25 09:07:00;;;;;;;4.03;3.17;;;;;;;;;;5014751;28;20437;-81
2021/08/25 09:09:26;;;;;;;6.43;3.03;;;;;;;;;;5015694;28;20535;-79
2021/08/25 09:11:53;;;;;;;4.90;3.03;;;;;;;;;;5015764;28;20883;-80
2021/08/25 09:14:20;;;;;;;6.83;3.90;;;;;;;;;;5015408;28;20806;-79
2021/08/25 09:16:46;;;;;;;5.03;2.87;;;;;;;;;;5015438;28;20430;-80
2021/08/25 09:19:17;;;;;;;3.33;3.03;;;;;;;;;;4998089;28;20776;-80
2021/08/25 09:21:44;;;;;;;3.97;3.00;;;;;;;;;;5015510;28;20414;-80
2021/08/25 09:24:11;;;;;;;4.30;2.97;;;;;;;;;;5015063;28;20758;-81
2021/08/25 09:26:39;;;;;;;3.30;2.57;;;;;;;;;;5015269;28;20445;-79
2021/08/25 09:29:21;;;;;;;4.73;2.90;;;;;;;;;;5015167;28;20466;-81
2021/08/25 09:31:50;;;;;;;5.00;2.90;;;;;;;;;;5015214;28;20409;-82
2021/08/25 09:34:26;;;;;;;3.40;2.60;;;;;;;;;;5014783;28;20504;-80
2021/08/25 09:37:08;;;;;;;4.73;2.60;;;;;;;;;;5014824;28;20496;-80
2021/08/25 09:39:34;;;;;;;5.50;2.70;;;;;;;;;;5014794;28;20429;-79
2021/08/25 09:42:04;;;;;;;3.17;2.57;;;;;;;;;;5015047;28;20420;-79
2021/08/25 09:44:30;;;;;;;5.53;2.87;;;;;;;;;;5014588;28;20823;-81
2021/08/25 09:46:56;;;;;;;5.57;2.63;;;;;;;;;;5014845;28;20457;-79
2021/08/25 09:49:22;;;;;;;4.67;3.17;;;;;;;;;;5014659;28;20887;-80
2021/08/25 09:51:50;;;;;;;5.40;3.67;;;;;;;;;;5014648;28;20417;-80
2021/08/25 09:54:18;;;;;;;3.37;2.70;;;;;;;;;;5014100;28;20852;-80
2021/08/25 09:56:47;;;;;;;5.40;3.17;;;;;;;;;;5014881;28;20484;-80
2021/08/25 09:59:14;;;;;;;5.10;2.67;;;;;;;;;;5014784;28;20414;-82
2021/08/25 10:01:42;;;;;;;4.10;2.90;;;;;;;;;;5014797;28;20417;-81
2021/08/25 10:04:09;;;;;;;4.23;2.87;;;;;;;;;;5014376;28;20446;-81
2021/08/25 10:06:39;;;;;;;5.60;3.07;;;;;;;;;;4997276;28;20445;-79
2021/08/25 10:09:06;;;;;;;3.27;2.83;;;;;;;;;;5014374;28;20823;-82
2021/08/25 10:11:39;;;;;;;5.40;3.40;;;;;;;;;;5013214;28;20425;-80
2021/08/25 10:14:09;;;;;;;5.93;2.83;;;;;;;;;;5014115;28;20509;-80
2021/08/25 10:16:38;;;;;;;4.60;3.23;;;;;;;;;;5014304;28;20491;-81
2021/08/25 10:19:22;;;;;;;4.13;2.90;;;;;;;;;;5014237;28;20405;-79
2021/08/25 10:21:49;;;;;;;4.33;2.50;;;;;;;;;;5014419;28;20406;-82
2021/08/25 10:24:15;;;;;;;3.47;2.67;;;;;;;;;;5013780;28;20406;-81
2021/08/25 10:26:59;;;;;;;3.47;3.17;;;;;;;;;;5014016;28;20456;-82
2021/08/25 10:29:26;;;;;;;6.83;3.33;;;;;;;;;;5013990;28;20540;-80
2021/08/25 10:31:58;;;;;;;4.73;3.23;;;;;;;;;;4996732;28;20414;-79
2021/08/25 10:34:25;;;;;;;3.30;2.80;;;;;;;;;;5013824;28;20460;-80
2021/08/25 10:36:51;;;;;;;3.40;2.73;;;;;;;;;;5014158;28;20472;-81
2021/08/25 10:39:29;;;;;;;3.70;3.10;;;;;;;;;;5013915;28;20441;-80
2021/08/25 10:41:59;;;;;;;4.17;3.00;;;;;;;;;;5014101;28;20464;-80
2021/08/25 10:44:41;;;;;;;6.00;3.50;;;;;;;;;;5013727;28;20445;-81
2021/08/25 10:47:07;;;;;;;4.30;3.43;;;;;;;;;;5013825;28;20405;-80
2021/08/25 10:49:33;;;;;;;4.60;3.30;;;;;;;;;;5013709;28;21016;-81
2021/08/25 10:52:18;;;;;;;7.57;3.60;;;;;;;;;;5014110;28;20434;-80
2021/08/25 10:54:45;;;;;;;4.23;3.60;;;;;;;;;;5013516;28;20412;-81
2021/08/25 10:57:19;;;;;;;5.90;3.50;;;;;;;;;;5013872;28;20488;-81
2021/08/25 10:59:45;;;;;;;4.73;3.70;;;;;;;;;;5013839;28;20497;-81
2021/08/25 11:02:11;;;;;;;5.60;3.63;;;;;;;;;;5013734;28;20472;-81
2021/08/25 11:04:38;;;;;;;4.10;2.77;;;;;;;;;;5013017;28;20429;-82
2021/08/25 11:07:06;;;;;;;5.37;3.63;;;;;;;;;;5013764;28;20808;-80
2021/08/25 11:09:33;;;;;;;4.00;3.33;;;;;;;;;;5012137;28;20501;-79
2021/08/25 11:12:00;;;;;;;5.50;3.77;;;;;;;;;;5013957;28;20504;-79
2021/08/25 11:14:31;;;;;;;4.20;2.97;;;;;;;;;;5013143;28;20489;-81
2021/08/25 11:17:13;;;;;;;3.80;2.80;;;;;;;;;;5013583;28;20413;-81
2021/08/25 11:19:50;;;;;;;4.43;3.70;;;;;;;;;;5012115;28;20437;-80
2021/08/25 11:22:21;;;;;;;3.73;3.10;;;;;;;;;;5013659;28;20417;-81
2021/08/25 11:24:48;;;;;;;7.27;3.53;;;;;;;;;;5013061;28;20410;-81
2021/08/25 11:27:26;;;;;;;4.20;3.23;;;;;;;;;;5013272;28;20421;-79
2021/08/25 11:29:59;;;;;;;3.70;2.93;;;;;;;;;;5011978;28;20527;-81
2021/08/25 11:32:25;;;;;;;3.83;2.93;;;;;;;;;;5012034;28;20418;-79
2021/08/25 11:34:52;;;;;;;6.20;3.10;;;;;;;;;;5012873;28;20429;-80
2021/08/25 11:37:23;;;;;;;4.50;3.43;;;;;;;;;;5013236;28;20775;-81
2021/08/25 11:40:02;;;;;;;4.67;3.30;;;;;;;;;;5012981;28;20465;-82
2021/08/25 11:42:32;;;;;;;4.57;3.73;;;;;;;;;;4995585;28;20421;-82
2021/08/25 11:44:58;;;;;;;4.83;3.33;;;;;;;;;;5012979;28;20441;-79
2021/08/25 11:47:25;;;;;;;7.20;4.23;;;;;;;;;;5013338;28;20437;-80
2021/08/25 11:49:53;;;;;;;4.60;3.57;;;;;;;;;;5013001;28;20466;-80
2021/08/25 11:52:20;;;;;;;5.50;3.60;;;;;;;;;;5013111;28;20413;-80
2021/08/25 11:54:47;;;;;;;4.30;3.10;;;;;;;;;;5012881;28;20407;-80
2021/08/25 11:57:15;;;;;;;5.93;3.37;;;;;;;;;;5013186;28;20547;-80
2021/08/25 11:59:59;;;;;;;7.00;4.27;;;;;;;;;;5011809;28;20461;-81
2021/08/25 12:02:26;;;;;;;4.37;3.67;;;;;;;;;;5013096;28;20460;-81
2021/08/25 12:04:52;;;;;;;5.60;3.40;;;;;;;;;;5012899;28;20462;-82
2021/08/25 12:07:24;;;;;;;5.17;3.30;;;;;;;;;;5012825;28;20967;-80
2021/08/25 12:09:53;;;;;;;6.63;4.77;;;;;;;;;;5012996;28;20564;-80
2021/08/25 12:12:19;;;;;;;7.73;3.93;;;;;;;;;;5013022;28;20409;-80
2021/08/25 12:15:11;;;;;;;6.00;4.23;;;;;;;;;;4995193;28;20420;-81
2021/08/25 12:17:57;;;;;;;9.73;4.53;;;;;;;;;;5013905;28;20425;-82
2021/08/25 12:20:35;;;;;;;6.27;4.50;;;;;;;;;;4999076;28;20472;-81
2021/08/25 12:23:05;;;;;;;5.30;4.10;;;;;;;;;;4999068;28;20435;-80
2021/08/25 12:25:41;;;;;;;6.53;4.70;;;;;;;;;;4998959;28;20433;-80
2021/08/25 12:28:10;;;;;;;6.20;4.07;;;;;;;;;;5016759;28;20405;-79
2021/08/25 12:30:39;;;;;;;7.23;4.40;;;;;;;;;;4983134;28;20438;-80
2021/08/25 12:33:06;;;;;;;7.70;4.63;;;;;;;;;;5016422;28;20406;-80
2021/08/25 12:35:33;;;;;;;9.73;5.83;;;;;;;;;;4999067;28;20430;-80
2021/08/25 12:37:59;;;;;;;9.77;5.20;;;;;;;;;;4998636;28;20505;-80
2021/08/25 12:40:29;;;;;;;7.27;5.40;;;;;;;;;;5015197;28;20478;-80
2021/08/25 12:42:56;;;;;;;9.37;5.87;;;;;;;;;;5014961;28;20421;-79
2021/08/25 12:45:22;;;;;;;6.43;4.87;;;;;;;;;;5014853;28;20484;-80
2021/08/25 12:47:49;;;;;;;11.07;5.83;;;;;;;;;;5016310;28;20414;-81
2021/08/25 12:50:15;;;;;;;7.67;5.77;;;;;;;;;;5014575;28;20461;-79
2021/08/25 12:52:41;;;;;;;9.30;5.53;;;;;;;;;;4998610;28;20429;-79
2021/08/25 12:55:09;;;;;;;10.20;5.23;;;;;;;;;;5014417;28;20438;-80
2021/08/25 12:57:36;;;;;;;8.93;5.30;;;;;;;;;;5015051;28;20512;-81
2021/08/25 13:00:02;;;;;;;9.33;5.80;;;;;;;;;;4982343;28;20453;-80
2021/08/25 13:02:28;;;;;;;9.10;5.43;;;;;;;;;;5015862;28;20414;-80
2021/08/25 13:04:54;;;;;;;7.20;4.70;;;;;;;;;;5015371;28;20484;-79
2021/08/25 13:07:20;;;;;;;6.00;4.10;;;;;;;;;;5014588;28;20429;-81
2021/08/25 13:09:46;;;;;;;7.00;4.70;;;;;;;;;;4998367;28;20492;-79
2021/08/25 13:12:12;;;;;;;8.40;4.80;;;;;;;;;;4982127;28;20422;-81
2021/08/25 13:14:38;;;;;;;6.67;5.23;;;;;;;;;;5014062;28;20504;-79
2021/08/25 13:17:04;;;;;;;4.17;3.77;;;;;;;;;;4982278;28;20418;-80
2021/08/25 13:19:30;;;;;;;7.73;3.70;;;;;;;;;;5015407;28;20757;-79
2021/08/25 13:21:56;;;;;;;4.23;3.47;;;;;;;;;;4998532;28;20418;-80
2021/08/25 13:24:22;;;;;;;6.47;4.60;;;;;;;;;;5014100;28;20433;-79
2021/08/25 13:26:48;;;;;;;8.00;4.67;;;;;;;;;;4981285;28;20438;-79
2021/08/25 13:29:14;;;;;;;11.93;4.70;;;;;;;;;;4981196;28;20576;-79
2021/08/25 13:31:40;;;;;;;5.73;3.90;;;;;;;;;;4981574;28;20440;-79
2021/08/25 13:34:06;;;;;;;6.27;3.87;;;;;;;;;;5013669;28;20472;-79
2021/08/25 13:36:32;;;;;;;5.43;3.57;;;;;;;;;;5015383;28;20437;-78
2021/08/25 13:38:58;;;;;;;5.83;4.00;;;;;;;;;;5014881;28;20434;-79
2021/08/25 13:41:24;;;;;;;6.80;3.67;;;;;;;;;;5015166;28;20409;-78
2021/08/25 13:43:53;;;;;;;8.20;4.70;;;;;;;;;;5014721;28;20472;-79
2021/08/25 13:46:21;;;;;;;7.93;5.53;;;;;;;;;;4997808;28;20434;-78
2021/08/25 13:48:47;;;;;;;9.57;5.93;;;;;;;;;;5013416;28;20473;-78
2021/08/25 13:51:13;;;;;;;15.13;6.47;;;;;;;;;;5014796;28;20410;-79
2021/08/25 13:53:39;;;;;;;11.70;6.10;;;;;;;;;;5014494;28;20560;-78
2021/08/25 13:56:06;;;;;;;8.00;5.80;;;;;;;;;;5014790;28;20422;-78
2021/08/25 13:58:32;;;;;;;8.50;5.73;;;;;;;;;;5014680;28;20489;-79
2021/08/25 14:01:02;;;;;;;9.77;5.00;;;;;;;;;;5014887;28;20437;-78
2021/08/25 14:03:27;;;;;;;11.97;6.13;;;;;;;;;;5014302;28;20496;-78
2021/08/25 14:05:53;;;;;;;10.77;5.80;;;;;;;;;;4997256;28;20476;-78
2021/08/25 14:08:19;;;;;;;11.00;5.37;;;;;;;;;;5014416;28;20418;-79
2021/08/25 14:10:45;;;;;;;7.70;5.97;;;;;;;;;;5014415;28;20425;-78
2021/08/25 14:13:11;;;;;;;12.50;6.03;;;;;;;;;;4996669;28;20420;-78
2021/08/25 14:15:37;;;;;;;7.17;5.37;;;;;;;;;;5014497;28;20544;-79
2021/08/25 14:18:05;;;;;;;11.20;5.90;;;;;;;;;;5014896;28;20413;-78
2021/08/25 14:20:31;;;;;;;8.67;5.97;;;;;;;;;;5014999;28;20505;-77
2021/08/25 14:22:57;;;;;;;8.73;6.17;;;;;;;;;;4996578;28;20891;-78
2021/08/25 14:25:23;;;;;;;7.83;5.80;;;;;;;;;;5014019;28;20919;-78
2021/08/25 14:27:49;;;;;;;9.80;5.80;;;;;;;;;;5014270;28;20793;-78
2021/08/25 14:30:15;;;;;;;8.10;5.10;;;;;;;;;;5014301;28;20468;-82
2021/08/25 14:32:41;;;;;;;7.90;5.70;;;;;;;;;;5014203;28;20496;-78
2021/08/25 14:35:08;;;;;;;11.40;6.27;;;;;;;;;;5013933;28;20465;-79
2021/08/25 14:37:35;;;;;;;8.87;6.30;;;;;;;;;;5016114;28;20426;-80
2021/08/25 14:40:01;;;;;;;7.93;5.87;;;;;;;;;;5012902;28;20460;-78
2021/08/25 14:42:27;;;;;;;11.63;6.33;;;;;;;;;;5014002;28;20418;-78